sensor_id;sensor_type;location;lat;lon;timestamp;temperature;humidity
16154;DHT22;8182;55.648;13.208;2024-03-25T00:01:42;4.50;1.00
16154;DHT22;8182;55.648;13.208;2024-03-25T00:04:09;4.50;1.00
16154;DHT22;8182;55.648;13.208;2024-03-25T00:06:35;4.50;1.00
16154;DHT22;8182;55.648;13.208;2024-03-25T00:09:04;4.50;1.00
16154;DHT22;8182;55.648;13.208;2024-03-25T00:11:30;4.60;1.00
16154;DHT22;8182;55.648;13.208;2024-03-25T00:13:57;4.60;1.00
16154;DHT22;8182;55.648;13.208;2024-03-25T00:16:23;4.70;1.00
16154;DHT22;8182;55.648;13.208;2024-03-25T00:18:50;4.60;1.00
16154;DHT22;8182;55.648;13.208;2024-03-25T00:21:16;4.70;1.00
16154;DHT22;8182;55.648;13.208;2024-03-25T00:23:42;4.60;1.00
16154;DHT22;8182;55.648;13.208;2024-03-25T00:26:10;4.70;1.00
16154;DHT22;8182;55.648;13.208;2024-03-25T00:28:37;4.60;1.00
16154;DHT22;8182;55.648;13.208;2024-03-25T00:31:04;4.50;1.00
16154;DHT22;8182;55.648;13.208;2024-03-25T00:33:31;4.50;1.00
16154;DHT22;8182;55.648;13.208;2024-03-25T00:35:58;4.40;1.00
16154;DHT22;8182;55.648;13.208;2024-03-25T00:38:25;4.40;1.00
16154;DHT22;8182;55.648;13.208;2024-03-25T00:40:50;4.40;1.00
16154;DHT22;8182;55.648;13.208;2024-03-25T00:43:19;4.40;1.00
16154;DHT22;8182;55.648;13.208;2024-03-25T00:45:45;4.30;1.00
16154;DHT22;8182;55.648;13.208;2024-03-25T00:48:12;4.30;1.00
16154;DHT22;8182;55.648;13.208;2024-03-25T00:50:38;4.30;1.00
16154;DHT22;8182;55.648;13.208;2024-03-25T00:53:04;4.40;1.00
16154;DHT22;8182;55.648;13.208;2024-03-25T00:55:30;4.40;1.00
16154;DHT22;8182;55.648;13.208;2024-03-25T00:57:57;4.60;1.00
16154;DHT22;8182;55.648;13.208;2024-03-25T01:00:24;4.50;1.00
16154;DHT22;8182;55.648;13.208;2024-03-25T01:02:51;4.20;1.00
16154;DHT22;8182;55.648;13.208;2024-03-25T01:05:17;4.10;1.00
16154;DHT22;8182;55.648;13.208;2024-03-25T01:07:44;4.00;1.00
16154;DHT22;8182;55.648;13.208;2024-03-25T01:10:10;4.10;1.00
16154;DHT22;8182;55.648;13.208;2024-03-25T01:12:37;4.10;1.00
16154;DHT22;8182;55.648;13.208;2024-03-25T01:15:03;4.00;1.00
16154;DHT22;8182;55.648;13.208;2024-03-25T01:17:32;4.10;1.00
16154;DHT22;8182;55.648;13.208;2024-03-25T01:19:58;4.10;1.00
16154;DHT22;8182;55.648;13.208;2024-03-25T01:22:25;4.00;1.00
16154;DHT22;8182;55.648;13.208;2024-03-25T01:24:51;4.10;1.00
16154;DHT22;8182;55.648;13.208;2024-03-25T01:27:17;4.00;1.00
16154;DHT22;8182;55.648;13.208;2024-03-25T01:29:43;4.00;1.00
16154;DHT22;8182;55.648;13.208;2024-03-25T01:32:10;4.00;1.00
16154;DHT22;8182;55.648;13.208;2024-03-25T01:34:37;4.00;1.00
16154;DHT22;8182;55.648;13.208;2024-03-25T01:37:04;4.20;1.00
16154;DHT22;8182;55.648;13.208;2024-03-25T01:39:30;4.50;1.00
16154;DHT22;8182;55.648;13.208;2024-03-25T01:41:57;4.30;1.00
16154;DHT22;8182;55.648;13.208;2024-03-25T01:44:23;4.20;1.00
16154;DHT22;8182;55.648;13.208;2024-03-25T01:46:50;4.10;1.00
16154;DHT22;8182;55.648;13.208;2024-03-25T01:49:18;4.10;1.00
16154;DHT22;8182;55.648;13.208;2024-03-25T01:51:48;4.20;1.00
16154;DHT22;8182;55.648;13.208;2024-03-25T01:54:14;4.30;1.00
16154;DHT22;8182;55.648;13.208;2024-03-25T01:56:44;4.50;1.00
16154;DHT22;8182;55.648;13.208;2024-03-25T01:59:13;4.50;1.00
16154;DHT22;8182;55.648;13.208;2024-03-25T02:01:42;4.40;1.00
16154;DHT22;8182;55.648;13.208;2024-03-25T02:04:09;4.20;1.00
16154;DHT22;8182;55.648;13.208;2024-03-25T02:06:39;4.20;1.00
16154;DHT22;8182;55.648;13.208;2024-03-25T02:09:08;4.10;1.00
16154;DHT22;8182;55.648;13.208;2024-03-25T02:11:35;4.10;1.00
16154;DHT22;8182;55.648;13.208;2024-03-25T02:14:02;4.20;1.00
16154;DHT22;8182;55.648;13.208;2024-03-25T02:16:29;4.10;1.00
16154;DHT22;8182;55.648;13.208;2024-03-25T02:18:55;4.10;1.00
16154;DHT22;8182;55.648;13.208;2024-03-25T02:21:21;4.00;1.00
16154;DHT22;8182;55.648;13.208;2024-03-25T02:23:48;3.90;1.00
16154;DHT22;8182;55.648;13.208;2024-03-25T02:26:18;4.00;1.00
16154;DHT22;8182;55.648;13.208;2024-03-25T02:28:43;4.20;1.00
16154;DHT22;8182;55.648;13.208;2024-03-25T02:31:10;4.10;1.00
16154;DHT22;8182;55.648;13.208;2024-03-25T02:33:36;4.10;1.00
16154;DHT22;8182;55.648;13.208;2024-03-25T02:36:03;4.10;1.00
16154;DHT22;8182;55.648;13.208;2024-03-25T02:38:29;4.00;1.00
16154;DHT22;8182;55.648;13.208;2024-03-25T02:40:58;4.00;1.00
16154;DHT22;8182;55.648;13.208;2024-03-25T02:43:25;4.00;1.00
16154;DHT22;8182;55.648;13.208;2024-03-25T02:45:52;4.00;1.00
16154;DHT22;8182;55.648;13.208;2024-03-25T02:48:18;4.00;1.00
16154;DHT22;8182;55.648;13.208;2024-03-25T02:50:45;4.00;1.00
16154;DHT22;8182;55.648;13.208;2024-03-25T02:53:11;4.00;1.00
16154;DHT22;8182;55.648;13.208;2024-03-25T02:55:38;3.90;1.00
16154;DHT22;8182;55.648;13.208;2024-03-25T02:58:03;4.10;1.00
16154;DHT22;8182;55.648;13.208;2024-03-25T03:00:32;3.90;1.00
16154;DHT22;8182;55.648;13.208;2024-03-25T03:02:58;3.90;1.00
16154;DHT22;8182;55.648;13.208;2024-03-25T03:05:25;3.80;1.00
16154;DHT22;8182;55.648;13.208;2024-03-25T03:07:50;4.00;1.00
16154;DHT22;8182;55.648;13.208;2024-03-25T03:10:17;3.90;1.00
16154;DHT22;8182;55.648;13.208;2024-03-25T03:12:43;3.90;1.00
16154;DHT22;8182;55.648;13.208;2024-03-25T03:15:10;3.90;1.00
16154;DHT22;8182;55.648;13.208;2024-03-25T03:17:37;3.80;1.00
16154;DHT22;8182;55.648;13.208;2024-03-25T03:20:05;4.10;1.00
16154;DHT22;8182;55.648;13.208;2024-03-25T03:22:32;4.10;1.00
16154;DHT22;8182;55.648;13.208;2024-03-25T03:24:59;4.10;1.00
16154;DHT22;8182;55.648;13.208;2024-03-25T03:27:24;4.00;1.00
16154;DHT22;8182;55.648;13.208;2024-03-25T03:29:51;4.00;1.00
16154;DHT22;8182;55.648;13.208;2024-03-25T03:32:17;4.00;1.00
16154;DHT22;8182;55.648;13.208;2024-03-25T03:34:45;4.10;1.00
16154;DHT22;8182;55.648;13.208;2024-03-25T03:37:11;4.00;1.00
16154;DHT22;8182;55.648;13.208;2024-03-25T03:39:38;4.00;1.00
16154;DHT22;8182;55.648;13.208;2024-03-25T03:42:04;4.00;1.00
16154;DHT22;8182;55.648;13.208;2024-03-25T03:44:31;3.90;1.00
16154;DHT22;8182;55.648;13.208;2024-03-25T03:46:56;3.90;1.00
16154;DHT22;8182;55.648;13.208;2024-03-25T03:49:23;3.90;1.00
16154;DHT22;8182;55.648;13.208;2024-03-25T03:51:50;4.00;1.00
16154;DHT22;8182;55.648;13.208;2024-03-25T03:54:17;3.90;1.00
16154;DHT22;8182;55.648;13.208;2024-03-25T03:56:43;3.90;1.00
16154;DHT22;8182;55.648;13.208;2024-03-25T03:59:10;3.90;1.00
16154;DHT22;8182;55.648;13.208;2024-03-25T04:01:36;3.90;1.00
16154;DHT22;8182;55.648;13.208;2024-03-25T04:04:03;3.90;1.00
16154;DHT22;8182;55.648;13.208;2024-03-25T04:06:30;3.90;1.00
16154;DHT22;8182;55.648;13.208;2024-03-25T04:08:58;3.90;1.00
16154;DHT22;8182;55.648;13.208;2024-03-25T04:11:24;3.90;1.00
16154;DHT22;8182;55.648;13.208;2024-03-25T04:13:50;4.00;1.00
16154;DHT22;8182;55.648;13.208;2024-03-25T04:16:16;3.90;1.00
16154;DHT22;8182;55.648;13.208;2024-03-25T04:18:43;3.90;1.00
16154;DHT22;8182;55.648;13.208;2024-03-25T04:21:11;3.90;1.00
16154;DHT22;8182;55.648;13.208;2024-03-25T04:23:39;3.80;1.00
16154;DHT22;8182;55.648;13.208;2024-03-25T04:26:07;3.80;1.00
16154;DHT22;8182;55.648;13.208;2024-03-25T04:28:34;3.90;1.00
16154;DHT22;8182;55.648;13.208;2024-03-25T04:31:00;3.80;1.00
16154;DHT22;8182;55.648;13.208;2024-03-25T04:33:28;3.90;1.00
16154;DHT22;8182;55.648;13.208;2024-03-25T04:35:54;4.00;1.00
16154;DHT22;8182;55.648;13.208;2024-03-25T04:38:21;4.00;1.00
16154;DHT22;8182;55.648;13.208;2024-03-25T04:40:47;4.00;1.00
16154;DHT22;8182;55.648;13.208;2024-03-25T04:43:14;4.00;1.00
16154;DHT22;8182;55.648;13.208;2024-03-25T04:45:40;4.10;1.00
16154;DHT22;8182;55.648;13.208;2024-03-25T04:48:07;4.20;1.00
16154;DHT22;8182;55.648;13.208;2024-03-25T04:50:34;4.20;1.00
16154;DHT22;8182;55.648;13.208;2024-03-25T04:53:00;4.10;1.00
16154;DHT22;8182;55.648;13.208;2024-03-25T04:55:26;4.00;1.00
16154;DHT22;8182;55.648;13.208;2024-03-25T04:57:52;4.00;1.00
16154;DHT22;8182;55.648;13.208;2024-03-25T05:00:19;4.00;1.00
16154;DHT22;8182;55.648;13.208;2024-03-25T05:02:45;4.00;1.00
16154;DHT22;8182;55.648;13.208;2024-03-25T05:05:11;4.10;1.00
16154;DHT22;8182;55.648;13.208;2024-03-25T05:07:37;4.10;1.00
16154;DHT22;8182;55.648;13.208;2024-03-25T05:10:03;4.10;1.00
16154;DHT22;8182;55.648;13.208;2024-03-25T05:12:29;4.10;1.00
16154;DHT22;8182;55.648;13.208;2024-03-25T05:14:55;4.00;1.00
16154;DHT22;8182;55.648;13.208;2024-03-25T05:17:23;4.10;1.00
16154;DHT22;8182;55.648;13.208;2024-03-25T05:19:48;4.10;1.00
16154;DHT22;8182;55.648;13.208;2024-03-25T05:22:15;4.20;1.00
16154;DHT22;8182;55.648;13.208;2024-03-25T05:24:40;4.20;1.00
16154;DHT22;8182;55.648;13.208;2024-03-25T05:27:06;4.20;1.00
16154;DHT22;8182;55.648;13.208;2024-03-25T05:29:32;4.20;1.00
16154;DHT22;8182;55.648;13.208;2024-03-25T05:31:59;4.20;1.00
16154;DHT22;8182;55.648;13.208;2024-03-25T05:34:28;4.20;1.00
16154;DHT22;8182;55.648;13.208;2024-03-25T05:36:54;4.30;1.00
16154;DHT22;8182;55.648;13.208;2024-03-25T05:39:20;4.40;1.00
16154;DHT22;8182;55.648;13.208;2024-03-25T05:41:46;4.60;1.00
16154;DHT22;8182;55.648;13.208;2024-03-25T05:44:13;4.60;1.00
16154;DHT22;8182;55.648;13.208;2024-03-25T05:46:39;4.60;1.00
16154;DHT22;8182;55.648;13.208;2024-03-25T05:49:05;4.70;1.00
16154;DHT22;8182;55.648;13.208;2024-03-25T05:51:33;4.70;1.00
16154;DHT22;8182;55.648;13.208;2024-03-25T05:53:59;4.70;1.00
16154;DHT22;8182;55.648;13.208;2024-03-25T05:56:25;4.80;1.00
16154;DHT22;8182;55.648;13.208;2024-03-25T05:58:51;4.90;1.00
16154;DHT22;8182;55.648;13.208;2024-03-25T06:01:17;5.10;1.00
16154;DHT22;8182;55.648;13.208;2024-03-25T06:03:43;5.20;1.00
16154;DHT22;8182;55.648;13.208;2024-03-25T06:06:09;5.30;1.00
16154;DHT22;8182;55.648;13.208;2024-03-25T06:08:37;5.40;1.00
16154;DHT22;8182;55.648;13.208;2024-03-25T06:11:03;5.40;1.00
16154;DHT22;8182;55.648;13.208;2024-03-25T06:13:29;5.20;1.00
16154;DHT22;8182;55.648;13.208;2024-03-25T06:15:55;5.20;1.00
16154;DHT22;8182;55.648;13.208;2024-03-25T06:18:21;5.20;1.00
16154;DHT22;8182;55.648;13.208;2024-03-25T06:20:47;5.20;1.00
16154;DHT22;8182;55.648;13.208;2024-03-25T06:23:22;5.40;1.00
16154;DHT22;8182;55.648;13.208;2024-03-25T06:25:50;5.50;1.00
16154;DHT22;8182;55.648;13.208;2024-03-25T06:28:16;5.60;1.00
16154;DHT22;8182;55.648;13.208;2024-03-25T06:30:41;5.70;1.00
16154;DHT22;8182;55.648;13.208;2024-03-25T06:33:26;5.70;1.00
16154;DHT22;8182;55.648;13.208;2024-03-25T06:36:10;5.80;1.00
16154;DHT22;8182;55.648;13.208;2024-03-25T06:38:36;5.80;1.00
16154;DHT22;8182;55.648;13.208;2024-03-25T06:41:03;5.70;1.00
16154;DHT22;8182;55.648;13.208;2024-03-25T06:43:29;5.50;1.00
16154;DHT22;8182;55.648;13.208;2024-03-25T06:45:55;5.60;1.00
16154;DHT22;8182;55.648;13.208;2024-03-25T06:48:21;5.70;1.00
16154;DHT22;8182;55.648;13.208;2024-03-25T06:50:52;5.80;1.00
16154;DHT22;8182;55.648;13.208;2024-03-25T06:53:18;5.90;1.00
16154;DHT22;8182;55.648;13.208;2024-03-25T06:55:51;6.00;1.00
16154;DHT22;8182;55.648;13.208;2024-03-25T06:58:19;6.10;1.00
16154;DHT22;8182;55.648;13.208;2024-03-25T07:00:45;6.10;1.00
16154;DHT22;8182;55.648;13.208;2024-03-25T07:03:11;6.30;1.00
16154;DHT22;8182;55.648;13.208;2024-03-25T07:05:37;6.40;1.00
16154;DHT22;8182;55.648;13.208;2024-03-25T07:08:03;6.50;1.00
16154;DHT22;8182;55.648;13.208;2024-03-25T07:10:29;6.70;1.00
16154;DHT22;8182;55.648;13.208;2024-03-25T07:12:55;6.80;1.00
16154;DHT22;8182;55.648;13.208;2024-03-25T07:15:22;6.70;1.00
16154;DHT22;8182;55.648;13.208;2024-03-25T07:17:48;6.60;1.00
16154;DHT22;8182;55.648;13.208;2024-03-25T07:20:14;6.50;1.00
16154;DHT22;8182;55.648;13.208;2024-03-25T07:22:40;6.70;1.00
16154;DHT22;8182;55.648;13.208;2024-03-25T07:25:06;6.70;1.00
16154;DHT22;8182;55.648;13.208;2024-03-25T07:27:32;6.70;1.00
16154;DHT22;8182;55.648;13.208;2024-03-25T07:29:58;6.80;1.00
16154;DHT22;8182;55.648;13.208;2024-03-25T07:32:25;7.00;1.00
16154;DHT22;8182;55.648;13.208;2024-03-25T07:34:51;7.10;1.00
16154;DHT22;8182;55.648;13.208;2024-03-25T07:37:17;7.60;1.00
16154;DHT22;8182;55.648;13.208;2024-03-25T07:39:46;8.30;1.00
16154;DHT22;8182;55.648;13.208;2024-03-25T07:42:12;9.60;1.00
16154;DHT22;8182;55.648;13.208;2024-03-25T07:44:37;10.20;1.00
16154;DHT22;8182;55.648;13.208;2024-03-25T07:47:04;9.70;1.00
16154;DHT22;8182;55.648;13.208;2024-03-25T07:49:31;9.60;1.00
16154;DHT22;8182;55.648;13.208;2024-03-25T07:51:57;9.90;1.00
16154;DHT22;8182;55.648;13.208;2024-03-25T07:54:23;12.10;1.00
16154;DHT22;8182;55.648;13.208;2024-03-25T07:56:49;10.70;1.00
16154;DHT22;8182;55.648;13.208;2024-03-25T07:59:15;9.90;1.00
16154;DHT22;8182;55.648;13.208;2024-03-25T08:01:40;9.70;1.00
16154;DHT22;8182;55.648;13.208;2024-03-25T08:04:06;9.50;1.00
16154;DHT22;8182;55.648;13.208;2024-03-25T08:06:34;9.20;1.00
16154;DHT22;8182;55.648;13.208;2024-03-25T08:08:59;8.50;1.00
16154;DHT22;8182;55.648;13.208;2024-03-25T08:11:25;8.30;1.00
16154;DHT22;8182;55.648;13.208;2024-03-25T08:13:52;8.30;1.00
16154;DHT22;8182;55.648;13.208;2024-03-25T08:16:18;8.40;1.00
16154;DHT22;8182;55.648;13.208;2024-03-25T08:18:44;8.40;1.00
16154;DHT22;8182;55.648;13.208;2024-03-25T08:21:10;8.60;1.00
16154;DHT22;8182;55.648;13.208;2024-03-25T08:23:37;8.30;1.00
16154;DHT22;8182;55.648;13.208;2024-03-25T08:26:03;8.10;1.00
16154;DHT22;8182;55.648;13.208;2024-03-25T08:28:29;8.10;1.00
16154;DHT22;8182;55.648;13.208;2024-03-25T08:30:55;8.10;1.00
16154;DHT22;8182;55.648;13.208;2024-03-25T08:33:21;8.30;1.00
16154;DHT22;8182;55.648;13.208;2024-03-25T08:35:47;8.50;1.00
16154;DHT22;8182;55.648;13.208;2024-03-25T08:38:13;8.80;1.00
16154;DHT22;8182;55.648;13.208;2024-03-25T08:40:40;9.30;1.00
16154;DHT22;8182;55.648;13.208;2024-03-25T08:43:06;9.60;1.00
16154;DHT22;8182;55.648;13.208;2024-03-25T08:45:32;10.00;1.00
16154;DHT22;8182;55.648;13.208;2024-03-25T08:47:58;11.20;1.00
16154;DHT22;8182;55.648;13.208;2024-03-25T08:50:24;11.50;1.00
16154;DHT22;8182;55.648;13.208;2024-03-25T08:52:50;12.80;1.00
16154;DHT22;8182;55.648;13.208;2024-03-25T08:55:15;13.10;1.00
16154;DHT22;8182;55.648;13.208;2024-03-25T08:57:43;11.20;1.00
16154;DHT22;8182;55.648;13.208;2024-03-25T09:00:10;11.00;1.00
16154;DHT22;8182;55.648;13.208;2024-03-25T09:02:36;10.90;1.00
16154;DHT22;8182;55.648;13.208;2024-03-25T09:05:02;11.20;1.00
16154;DHT22;8182;55.648;13.208;2024-03-25T09:07:28;11.50;1.00
16154;DHT22;8182;55.648;13.208;2024-03-25T09:09:54;12.10;1.00
16154;DHT22;8182;55.648;13.208;2024-03-25T09:12:38;12.80;1.00
16154;DHT22;8182;55.648;13.208;2024-03-25T09:15:06;13.20;1.00
16154;DHT22;8182;55.648;13.208;2024-03-25T09:17:32;16.90;1.00
16154;DHT22;8182;55.648;13.208;2024-03-25T09:19:58;18.30;1.00
16154;DHT22;8182;55.648;13.208;2024-03-25T09:22:24;19.50;1.00
16154;DHT22;8182;55.648;13.208;2024-03-25T09:24:50;17.00;1.00
16154;DHT22;8182;55.648;13.208;2024-03-25T09:27:16;15.50;1.00
16154;DHT22;8182;55.648;13.208;2024-03-25T09:29:42;15.60;1.00
16154;DHT22;8182;55.648;13.208;2024-03-25T09:32:09;12.80;1.00
16154;DHT22;8182;55.648;13.208;2024-03-25T09:34:35;11.60;1.00
16154;DHT22;8182;55.648;13.208;2024-03-25T09:37:01;17.10;1.00
16154;DHT22;8182;55.648;13.208;2024-03-25T09:39:27;17.90;1.00
16154;DHT22;8182;55.648;13.208;2024-03-25T09:41:55;19.20;1.00
16154;DHT22;8182;55.648;13.208;2024-03-25T09:44:22;19.70;1.00
16154;DHT22;8182;55.648;13.208;2024-03-25T09:46:50;17.10;1.00
16154;DHT22;8182;55.648;13.208;2024-03-25T09:49:19;19.70;1.00
16154;DHT22;8182;55.648;13.208;2024-03-25T09:51:45;20.70;1.00
16154;DHT22;8182;55.648;13.208;2024-03-25T09:54:11;20.50;1.00
16154;DHT22;8182;55.648;13.208;2024-03-25T09:56:37;20.40;1.00
16154;DHT22;8182;55.648;13.208;2024-03-25T09:59:04;19.70;1.00
16154;DHT22;8182;55.648;13.208;2024-03-25T10:01:30;21.40;1.00
16154;DHT22;8182;55.648;13.208;2024-03-25T10:03:56;21.30;1.00
16154;DHT22;8182;55.648;13.208;2024-03-25T10:06:24;17.10;1.00
16154;DHT22;8182;55.648;13.208;2024-03-25T10:08:53;18.60;1.00
16154;DHT22;8182;55.648;13.208;2024-03-25T10:11:19;16.70;1.00
16154;DHT22;8182;55.648;13.208;2024-03-25T10:13:45;16.70;1.00
16154;DHT22;8182;55.648;13.208;2024-03-25T10:16:11;15.10;99.90
16154;DHT22;8182;55.648;13.208;2024-03-25T10:18:37;13.70;99.90
16154;DHT22;8182;55.648;13.208;2024-03-25T10:21:03;13.70;99.90
16154;DHT22;8182;55.648;13.208;2024-03-25T10:23:31;13.70;99.90
16154;DHT22;8182;55.648;13.208;2024-03-25T10:25:57;13.50;99.90
16154;DHT22;8182;55.648;13.208;2024-03-25T10:28:23;13.00;99.90
16154;DHT22;8182;55.648;13.208;2024-03-25T10:30:49;13.10;99.90
16154;DHT22;8182;55.648;13.208;2024-03-25T10:33:17;14.00;1.00
16154;DHT22;8182;55.648;13.208;2024-03-25T10:35:45;16.70;1.00
16154;DHT22;8182;55.648;13.208;2024-03-25T10:38:14;15.40;99.90
16154;DHT22;8182;55.648;13.208;2024-03-25T10:40:44;14.00;99.90
16154;DHT22;8182;55.648;13.208;2024-03-25T10:43:11;13.60;99.90
16154;DHT22;8182;55.648;13.208;2024-03-25T10:45:40;12.70;99.90
16154;DHT22;8182;55.648;13.208;2024-03-25T10:48:09;11.70;99.90
16154;DHT22;8182;55.648;13.208;2024-03-25T10:50:38;11.70;99.90
16154;DHT22;8182;55.648;13.208;2024-03-25T10:53:05;11.40;99.90
16154;DHT22;8182;55.648;13.208;2024-03-25T10:55:32;11.50;99.90
16154;DHT22;8182;55.648;13.208;2024-03-25T10:58:01;11.30;99.90
16154;DHT22;8182;55.648;13.208;2024-03-25T11:00:28;11.10;99.90
16154;DHT22;8182;55.648;13.208;2024-03-25T11:02:54;10.80;99.90
16154;DHT22;8182;55.648;13.208;2024-03-25T11:05:21;10.40;99.90
16154;DHT22;8182;55.648;13.208;2024-03-25T11:07:47;10.10;99.90
16154;DHT22;8182;55.648;13.208;2024-03-25T11:10:13;9.70;99.90
16154;DHT22;8182;55.648;13.208;2024-03-25T11:12:40;9.70;99.90
16154;DHT22;8182;55.648;13.208;2024-03-25T11:15:09;9.50;99.90
16154;DHT22;8182;55.648;13.208;2024-03-25T11:17:35;9.60;99.90
16154;DHT22;8182;55.648;13.208;2024-03-25T11:20:09;9.40;99.90
16154;DHT22;8182;55.648;13.208;2024-03-25T11:22:36;9.30;99.90
16154;DHT22;8182;55.648;13.208;2024-03-25T11:25:13;9.20;99.90
16154;DHT22;8182;55.648;13.208;2024-03-25T11:27:39;9.40;99.90
16154;DHT22;8182;55.648;13.208;2024-03-25T11:30:08;9.60;99.90
16154;DHT22;8182;55.648;13.208;2024-03-25T11:32:44;9.80;99.90
16154;DHT22;8182;55.648;13.208;2024-03-25T11:35:10;9.80;99.90
16154;DHT22;8182;55.648;13.208;2024-03-25T11:37:40;9.80;99.90
16154;DHT22;8182;55.648;13.208;2024-03-25T11:40:07;9.70;99.90
16154;DHT22;8182;55.648;13.208;2024-03-25T11:42:33;9.80;99.90
16154;DHT22;8182;55.648;13.208;2024-03-25T11:45:00;9.90;99.90
16154;DHT22;8182;55.648;13.208;2024-03-25T11:47:27;9.90;99.90
16154;DHT22;8182;55.648;13.208;2024-03-25T11:49:54;9.90;99.90
16154;DHT22;8182;55.648;13.208;2024-03-25T11:52:19;9.90;99.90
16154;DHT22;8182;55.648;13.208;2024-03-25T11:54:53;9.90;99.90
16154;DHT22;8182;55.648;13.208;2024-03-25T11:57:20;9.90;99.90
16154;DHT22;8182;55.648;13.208;2024-03-25T11:59:47;9.80;99.90
16154;DHT22;8182;55.648;13.208;2024-03-25T12:02:13;9.50;99.90
16154;DHT22;8182;55.648;13.208;2024-03-25T12:04:43;9.50;99.90
16154;DHT22;8182;55.648;13.208;2024-03-25T12:07:11;9.40;99.90
16154;DHT22;8182;55.648;13.208;2024-03-25T12:09:37;9.40;99.90
16154;DHT22;8182;55.648;13.208;2024-03-25T12:12:21;9.40;99.90
16154;DHT22;8182;55.648;13.208;2024-03-25T12:14:47;9.50;99.90
16154;DHT22;8182;55.648;13.208;2024-03-25T12:17:13;9.50;99.90
16154;DHT22;8182;55.648;13.208;2024-03-25T12:19:39;9.40;99.90
16154;DHT22;8182;55.648;13.208;2024-03-25T12:22:07;9.30;99.90
16154;DHT22;8182;55.648;13.208;2024-03-25T12:24:33;9.40;99.90
16154;DHT22;8182;55.648;13.208;2024-03-25T12:26:59;9.40;99.90
16154;DHT22;8182;55.648;13.208;2024-03-25T12:29:25;9.40;99.90
16154;DHT22;8182;55.648;13.208;2024-03-25T12:31:54;9.50;99.90
16154;DHT22;8182;55.648;13.208;2024-03-25T12:34:20;9.70;99.90
16154;DHT22;8182;55.648;13.208;2024-03-25T12:36:47;9.80;99.90
16154;DHT22;8182;55.648;13.208;2024-03-25T12:39:18;10.00;99.90
16154;DHT22;8182;55.648;13.208;2024-03-25T12:41:44;10.00;99.90
16154;DHT22;8182;55.648;13.208;2024-03-25T12:44:12;9.70;99.90
16154;DHT22;8182;55.648;13.208;2024-03-25T12:46:38;9.70;99.90
16154;DHT22;8182;55.648;13.208;2024-03-25T12:49:04;9.60;99.90
16154;DHT22;8182;55.648;13.208;2024-03-25T12:51:30;9.50;99.90
16154;DHT22;8182;55.648;13.208;2024-03-25T12:53:56;9.20;99.90
16154;DHT22;8182;55.648;13.208;2024-03-25T12:56:24;9.10;99.90
16154;DHT22;8182;55.648;13.208;2024-03-25T12:58:50;8.90;99.90
16154;DHT22;8182;55.648;13.208;2024-03-25T13:01:15;8.90;99.90
16154;DHT22;8182;55.648;13.208;2024-03-25T13:03:42;8.80;99.90
16154;DHT22;8182;55.648;13.208;2024-03-25T13:06:08;8.90;99.90
16154;DHT22;8182;55.648;13.208;2024-03-25T13:08:34;8.80;99.90
16154;DHT22;8182;55.648;13.208;2024-03-25T13:11:00;8.80;99.90
16154;DHT22;8182;55.648;13.208;2024-03-25T13:13:27;8.70;99.90
16154;DHT22;8182;55.648;13.208;2024-03-25T13:15:53;9.10;99.90
16154;DHT22;8182;55.648;13.208;2024-03-25T13:18:19;9.50;99.90
16154;DHT22;8182;55.648;13.208;2024-03-25T13:20:45;9.60;99.90
16154;DHT22;8182;55.648;13.208;2024-03-25T13:23:11;9.80;99.90
16154;DHT22;8182;55.648;13.208;2024-03-25T13:25:37;9.70;99.90
16154;DHT22;8182;55.648;13.208;2024-03-25T13:28:03;9.50;99.90
16154;DHT22;8182;55.648;13.208;2024-03-25T13:30:31;9.40;99.90
16154;DHT22;8182;55.648;13.208;2024-03-25T13:32:57;9.60;99.90
16154;DHT22;8182;55.648;13.208;2024-03-25T13:35:24;9.70;99.90
16154;DHT22;8182;55.648;13.208;2024-03-25T13:37:49;9.70;99.90
16154;DHT22;8182;55.648;13.208;2024-03-25T13:40:15;9.60;99.90
16154;DHT22;8182;55.648;13.208;2024-03-25T13:42:41;9.40;99.90
16154;DHT22;8182;55.648;13.208;2024-03-25T13:45:08;9.60;99.90
16154;DHT22;8182;55.648;13.208;2024-03-25T13:47:35;9.70;99.90
16154;DHT22;8182;55.648;13.208;2024-03-25T13:50:02;10.00;99.90
16154;DHT22;8182;55.648;13.208;2024-03-25T13:52:28;9.80;99.90
16154;DHT22;8182;55.648;13.208;2024-03-25T13:54:54;9.70;99.90
16154;DHT22;8182;55.648;13.208;2024-03-25T13:57:20;9.50;99.90
16154;DHT22;8182;55.648;13.208;2024-03-25T13:59:46;9.30;99.90
16154;DHT22;8182;55.648;13.208;2024-03-25T14:02:12;9.30;99.90
16154;DHT22;8182;55.648;13.208;2024-03-25T14:04:39;9.30;99.90
16154;DHT22;8182;55.648;13.208;2024-03-25T14:07:05;9.40;99.90
16154;DHT22;8182;55.648;13.208;2024-03-25T14:09:31;9.20;99.90
16154;DHT22;8182;55.648;13.208;2024-03-25T14:11:57;9.10;99.90
16154;DHT22;8182;55.648;13.208;2024-03-25T14:14:23;8.90;99.90
16154;DHT22;8182;55.648;13.208;2024-03-25T14:16:48;8.90;99.90
16154;DHT22;8182;55.648;13.208;2024-03-25T14:19:14;8.80;99.90
16154;DHT22;8182;55.648;13.208;2024-03-25T14:21:42;8.60;99.90
16154;DHT22;8182;55.648;13.208;2024-03-25T14:24:08;8.60;99.90
16154;DHT22;8182;55.648;13.208;2024-03-25T14:26:34;8.50;99.90
16154;DHT22;8182;55.648;13.208;2024-03-25T14:29:00;8.40;99.90
16154;DHT22;8182;55.648;13.208;2024-03-25T14:31:26;8.50;99.90
16154;DHT22;8182;55.648;13.208;2024-03-25T14:33:52;8.40;99.90
16154;DHT22;8182;55.648;13.208;2024-03-25T14:36:18;8.40;99.90
16154;DHT22;8182;55.648;13.208;2024-03-25T14:38:45;8.50;99.90
16154;DHT22;8182;55.648;13.208;2024-03-25T14:41:12;8.50;99.90
16154;DHT22;8182;55.648;13.208;2024-03-25T14:43:38;8.50;99.90
16154;DHT22;8182;55.648;13.208;2024-03-25T14:46:04;8.50;99.90
16154;DHT22;8182;55.648;13.208;2024-03-25T14:48:30;8.60;99.90
16154;DHT22;8182;55.648;13.208;2024-03-25T14:50:56;8.70;99.90
16154;DHT22;8182;55.648;13.208;2024-03-25T14:53:21;8.70;99.90
16154;DHT22;8182;55.648;13.208;2024-03-25T14:55:49;8.40;99.90
16154;DHT22;8182;55.648;13.208;2024-03-25T14:58:15;8.40;99.90
16154;DHT22;8182;55.648;13.208;2024-03-25T15:00:41;8.50;99.90
16154;DHT22;8182;55.648;13.208;2024-03-25T15:03:06;8.50;99.90
16154;DHT22;8182;55.648;13.208;2024-03-25T15:05:32;8.50;99.90
16154;DHT22;8182;55.648;13.208;2024-03-25T15:07:58;8.40;99.90
16154;DHT22;8182;55.648;13.208;2024-03-25T15:10:25;8.40;99.90
16154;DHT22;8182;55.648;13.208;2024-03-25T15:12:53;8.40;99.90
16154;DHT22;8182;55.648;13.208;2024-03-25T15:15:19;8.30;99.90
16154;DHT22;8182;55.648;13.208;2024-03-25T15:17:45;8.50;99.90
16154;DHT22;8182;55.648;13.208;2024-03-25T15:20:12;8.50;99.90
16154;DHT22;8182;55.648;13.208;2024-03-25T15:22:38;8.50;99.90
16154;DHT22;8182;55.648;13.208;2024-03-25T15:25:04;8.50;99.90
16154;DHT22;8182;55.648;13.208;2024-03-25T15:27:30;8.50;99.90
16154;DHT22;8182;55.648;13.208;2024-03-25T15:29:57;8.40;99.90
16154;DHT22;8182;55.648;13.208;2024-03-25T15:32:23;8.50;99.90
16154;DHT22;8182;55.648;13.208;2024-03-25T15:34:49;8.20;99.90
16154;DHT22;8182;55.648;13.208;2024-03-25T15:37:15;8.10;99.90
16154;DHT22;8182;55.648;13.208;2024-03-25T15:39:41;8.00;99.90
16154;DHT22;8182;55.648;13.208;2024-03-25T15:42:07;8.00;99.90
16154;DHT22;8182;55.648;13.208;2024-03-25T15:44:33;8.00;99.90
16154;DHT22;8182;55.648;13.208;2024-03-25T15:47:00;8.00;99.90
16154;DHT22;8182;55.648;13.208;2024-03-25T15:49:26;8.10;99.90
16154;DHT22;8182;55.648;13.208;2024-03-25T15:51:52;8.10;99.90